sensor_id;sensor_type;location;lat;lon;timestamp;pressure;altitude;pressure_sealevel;temperature;humidity
13709;BME280;54933;51.908;7.730;2023-03-03T00:00:38;101749.22;;;20.63;59.57
13709;BME280;54933;51.908;7.730;2023-03-03T00:03:06;101756.28;;;20.64;59.79
13709;BME280;54933;51.908;7.730;2023-03-03T00:05:33;101749.22;;;20.63;59.61
13709;BME280;54933;51.908;7.730;2023-03-03T00:07:59;101743.81;;;20.63;59.52
13709;BME280;54933;51.908;7.730;2023-03-03T00:10:25;101753.78;;;20.63;59.76
13709;BME280;54933;51.908;7.730;2023-03-03T00:12:51;101755.66;;;20.62;59.63
13709;BME280;54933;51.908;7.730;2023-03-03T00:15:18;101757.50;;;20.62;59.67
13709;BME280;54933;51.908;7.730;2023-03-03T00:17:44;101758.38;;;20.62;59.55
13709;BME280;54933;51.908;7.730;2023-03-03T00:20:36;101765.44;;;20.63;59.60
13709;BME280;54933;51.908;7.730;2023-03-03T00:23:13;101764.56;;;20.63;59.65
13709;BME280;54933;51.908;7.730;2023-03-03T00:25:44;101763.75;;;20.62;59.58
13709;BME280;54933;51.908;7.730;2023-03-03T00:28:23;101763.75;;;20.62;59.64
13709;BME280;54933;51.908;7.730;2023-03-03T00:30:50;101758.38;;;20.62;59.61
13709;BME280;54933;51.908;7.730;2023-03-03T00:35:55;101762.06;;;20.61;59.49
13709;BME280;54933;51.908;7.730;2023-03-03T00:38:21;101764.78;;;20.61;59.50
13709;BME280;54933;51.908;7.730;2023-03-03T00:40:47;101763.94;;;20.61;59.48
13709;BME280;54933;51.908;7.730;2023-03-03T00:43:20;101767.47;;;20.61;59.29
13709;BME280;54933;51.908;7.730;2023-03-03T00:45:48;101760.41;;;20.60;59.70
13709;BME280;54933;51.908;7.730;2023-03-03T00:48:26;101757.72;;;20.60;59.55
13709;BME280;54933;51.908;7.730;2023-03-03T00:50:56;101767.47;;;20.61;59.35
13709;BME280;54933;51.908;7.730;2023-03-03T00:53:24;101757.72;;;20.60;59.57
13709;BME280;54933;51.908;7.730;2023-03-03T00:55:51;101766.63;;;20.61;59.52
13709;BME280;54933;51.908;7.730;2023-03-03T00:58:18;101761.22;;;20.61;59.64
13709;BME280;54933;51.908;7.730;2023-03-03T01:00:46;101771.22;;;20.60;59.50
13709;BME280;54933;51.908;7.730;2023-03-03T01:03:14;101767.47;;;20.61;59.42
13709;BME280;54933;51.908;7.730;2023-03-03T01:05:40;101772.88;;;20.61;59.45
13709;BME280;54933;51.908;7.730;2023-03-03T01:08:06;101768.31;;;20.62;59.53
13709;BME280;54933;51.908;7.730;2023-03-03T01:10:34;101752.31;;;20.60;59.44
13709;BME280;54933;51.908;7.730;2023-03-03T01:13:00;101749.59;;;20.60;59.53
13709;BME280;54933;51.908;7.730;2023-03-03T01:15:25;101752.13;;;20.62;59.53
13709;BME280;54933;51.908;7.730;2023-03-03T01:17:51;101755.81;;;20.61;59.79
13709;BME280;54933;51.908;7.730;2023-03-03T01:20:16;101763.09;;;20.60;59.66
13709;BME280;54933;51.908;7.730;2023-03-03T01:22:41;101760.41;;;20.60;59.71
13709;BME280;54933;51.908;7.730;2023-03-03T01:25:07;101763.94;;;20.61;59.58
13709;BME280;54933;51.908;7.730;2023-03-03T01:27:34;101760.41;;;20.60;59.48
13709;BME280;54933;51.908;7.730;2023-03-03T01:29:59;101754.16;;;20.60;59.57
13709;BME280;54933;51.908;7.730;2023-03-03T01:32:25;101750.41;;;20.61;59.43
13709;BME280;54933;51.908;7.730;2023-03-03T01:34:52;101757.91;;;20.59;59.42
13709;BME280;54933;51.908;7.730;2023-03-03T01:37:18;101756.00;;;20.59;59.43
13709;BME280;54933;51.908;7.730;2023-03-03T01:39:47;101757.91;;;20.59;59.46
13709;BME280;54933;51.908;7.730;2023-03-03T01:42:12;101766.00;;;20.59;59.53
13709;BME280;54933;51.908;7.730;2023-03-03T01:44:38;101756.88;;;20.60;59.66
13709;BME280;54933;51.908;7.730;2023-03-03T01:47:07;101762.25;;;20.60;59.41
13709;BME280;54933;51.908;7.730;2023-03-03T01:49:40;101760.59;;;20.59;59.54
13709;BME280;54933;51.908;7.730;2023-03-03T01:52:22;101758.72;;;20.59;59.61
13709;BME280;54933;51.908;7.730;2023-03-03T01:54:52;101759.75;;;20.58;59.42
13709;BME280;54933;51.908;7.730;2023-03-03T01:57:25;101760.41;;;20.60;59.68
13709;BME280;54933;51.908;7.730;2023-03-03T01:59:52;101762.47;;;20.58;59.42
13709;BME280;54933;51.908;7.730;2023-03-03T02:02:19;101753.50;;;20.58;59.67
13709;BME280;54933;51.908;7.730;2023-03-03T02:04:44;101745.22;;;20.59;59.59
13709;BME280;54933;51.908;7.730;2023-03-03T02:07:11;101742.72;;;20.58;59.42
13709;BME280;54933;51.908;7.730;2023-03-03T02:15:25;101758.09;;;20.57;59.63
13709;BME280;54933;51.908;7.730;2023-03-03T02:17:53;101760.78;;;20.57;59.61
13709;BME280;54933;51.908;7.730;2023-03-03T02:20:37;101760.78;;;20.57;59.57
13709;BME280;54933;51.908;7.730;2023-03-03T02:28:30;101751.84;;;20.57;59.31
13709;BME280;54933;51.908;7.730;2023-03-03T02:30:57;101752.88;;;20.56;59.59
13709;BME280;54933;51.908;7.730;2023-03-03T02:33:23;101760.78;;;20.57;59.44
13709;BME280;54933;51.908;7.730;2023-03-03T02:35:49;101755.59;;;20.56;59.40
13709;BME280;54933;51.908;7.730;2023-03-03T02:38:40;101760.78;;;20.57;59.58
13709;BME280;54933;51.908;7.730;2023-03-03T02:41:15;101759.09;;;20.56;59.59
13709;BME280;54933;51.908;7.730;2023-03-03T02:43:59;101757.44;;;20.55;59.69
13709;BME280;54933;51.908;7.730;2023-03-03T02:46:26;101759.09;;;20.56;59.38
13709;BME280;54933;51.908;7.730;2023-03-03T02:48:51;101754.75;;;20.55;59.59
13709;BME280;54933;51.908;7.730;2023-03-03T02:51:17;101752.88;;;20.56;59.53
13709;BME280;54933;51.908;7.730;2023-03-03T02:53:43;101757.44;;;20.55;59.48
13709;BME280;54933;51.908;7.730;2023-03-03T02:56:08;101758.28;;;20.56;59.39
13709;BME280;54933;51.908;7.730;2023-03-03T02:58:34;101760.13;;;20.55;59.48
13709;BME280;54933;51.908;7.730;2023-03-03T03:01:00;101769.91;;;20.56;59.46
13709;BME280;54933;51.908;7.730;2023-03-03T03:03:25;101761.81;;;20.56;59.26
13709;BME280;54933;51.908;7.730;2023-03-03T03:05:51;101759.09;;;20.56;59.37
13709;BME280;54933;51.908;7.730;2023-03-03T03:08:16;101754.75;;;20.55;59.40
13709;BME280;54933;51.908;7.730;2023-03-03T03:10:41;101757.44;;;20.55;59.36
13709;BME280;54933;51.908;7.730;2023-03-03T03:13:06;101759.28;;;20.55;59.46
13709;BME280;54933;51.908;7.730;2023-03-03T03:15:34;101761.81;;;20.56;59.48
13709;BME280;54933;51.908;7.730;2023-03-03T03:17:59;101762.84;;;20.55;59.33
13709;BME280;54933;51.908;7.730;2023-03-03T03:20:24;101762.84;;;20.55;59.46
13709;BME280;54933;51.908;7.730;2023-03-03T03:22:50;101771.78;;;20.56;59.56
13709;BME280;54933;51.908;7.730;2023-03-03T03:25:15;101760.13;;;20.55;59.60
13709;BME280;54933;51.908;7.730;2023-03-03T03:27:40;101757.44;;;20.55;59.50
13709;BME280;54933;51.908;7.730;2023-03-03T03:30:06;101751.19;;;20.55;59.59
13709;BME280;54933;51.908;7.730;2023-03-03T03:32:31;101757.44;;;20.55;59.46
13709;BME280;54933;51.908;7.730;2023-03-03T03:34:57;101755.75;;;20.54;59.41
13709;BME280;54933;51.908;7.730;2023-03-03T03:37:22;101758.44;;;20.54;59.55
13709;BME280;54933;51.908;7.730;2023-03-03T03:39:47;101755.75;;;20.54;59.42
13709;BME280;54933;51.908;7.730;2023-03-03T03:42:12;101765.53;;;20.55;59.45
13709;BME280;54933;51.908;7.730;2023-03-03T03:44:38;101763.84;;;20.54;59.46
13709;BME280;54933;51.908;7.730;2023-03-03T03:47:03;101770.94;;;20.55;59.50
13709;BME280;54933;51.908;7.730;2023-03-03T03:49:28;101757.44;;;20.55;59.52
13709;BME280;54933;51.908;7.730;2023-03-03T03:51:54;101754.75;;;20.55;59.15
13709;BME280;54933;51.908;7.730;2023-03-03T03:54:20;101753.03;;;20.54;59.51
13709;BME280;54933;51.908;7.730;2023-03-03T03:56:45;101750.34;;;20.54;59.59
13709;BME280;54933;51.908;7.730;2023-03-03T03:59:10;101753.03;;;20.54;59.33
13709;BME280;54933;51.908;7.730;2023-03-03T04:01:36;101756.59;;;20.55;59.50
13709;BME280;54933;51.908;7.730;2023-03-03T04:04:01;101750.34;;;20.54;59.43
13709;BME280;54933;51.908;7.730;2023-03-03T04:06:28;101748.50;;;20.55;59.55
13709;BME280;54933;51.908;7.730;2023-03-03T04:08:54;101755.75;;;20.54;59.50
13709;BME280;54933;51.908;7.730;2023-03-03T04:11:19;101754.09;;;20.53;59.60
13709;BME280;54933;51.908;7.730;2023-03-03T04:13:44;101755.75;;;20.54;59.31
13709;BME280;54933;51.908;7.730;2023-03-03T04:16:09;101756.59;;;20.55;59.44
13709;BME280;54933;51.908;7.730;2023-03-03T04:18:35;101750.34;;;20.54;59.46
13709;BME280;54933;51.908;7.730;2023-03-03T04:21:00;101755.75;;;20.54;59.39
13709;BME280;54933;51.908;7.730;2023-03-03T04:23:25;101755.75;;;20.54;59.31
13709;BME280;54933;51.908;7.730;2023-03-03T04:25:50;101764.88;;;20.53;59.35
13709;BME280;54933;51.908;7.730;2023-03-03T04:28:16;101757.63;;;20.54;59.46
13709;BME280;54933;51.908;7.730;2023-03-03T04:30:41;101758.63;;;20.53;59.52
13709;BME280;54933;51.908;7.730;2023-03-03T04:33:07;101763.03;;;20.54;59.38
13709;BME280;54933;51.908;7.730;2023-03-03T04:35:32;101759.47;;;20.53;59.58
13709;BME280;54933;51.908;7.730;2023-03-03T04:37:58;101764.88;;;20.53;59.38
13709;BME280;54933;51.908;7.730;2023-03-03T04:40:23;101760.53;;;20.52;59.63
13709;BME280;54933;51.908;7.730;2023-03-03T04:42:49;101768.63;;;20.52;59.46
13709;BME280;54933;51.908;7.730;2023-03-03T04:45:14;101771.31;;;20.52;59.33
13709;BME280;54933;51.908;7.730;2023-03-03T04:47:39;101772.97;;;20.53;59.60
13709;BME280;54933;51.908;7.730;2023-03-03T04:50:05;101771.31;;;20.52;59.43
13709;BME280;54933;51.908;7.730;2023-03-03T04:52:31;101764.88;;;20.53;59.53
13709;BME280;54933;51.908;7.730;2023-03-03T04:54:56;101757.81;;;20.52;59.36
13709;BME280;54933;51.908;7.730;2023-03-03T04:57:22;101759.47;;;20.53;59.24
13709;BME280;54933;51.908;7.730;2023-03-03T04:59:47;101768.63;;;20.52;59.42
13709;BME280;54933;51.908;7.730;2023-03-03T05:02:12;101765.06;;;20.52;59.47
13709;BME280;54933;51.908;7.730;2023-03-03T05:04:39;101771.31;;;20.52;59.70
13709;BME280;54933;51.908;7.730;2023-03-03T05:07:04;101774.03;;;20.52;59.35
13709;BME280;54933;51.908;7.730;2023-03-03T05:09:29;101774.03;;;20.52;59.62
13709;BME280;54933;51.908;7.730;2023-03-03T05:11:54;101774.03;;;20.52;59.53
13709;BME280;54933;51.908;7.730;2023-03-03T05:14:20;101774.03;;;20.52;59.61
13709;BME280;54933;51.908;7.730;2023-03-03T05:16:45;101770.28;;;20.53;59.61
13709;BME280;54933;51.908;7.730;2023-03-03T05:19:11;101771.78;;;20.56;59.72
13709;BME280;54933;51.908;7.730;2023-03-03T05:21:36;101769.09;;;20.56;59.82
13709;BME280;54933;51.908;7.730;2023-03-03T05:24:07;101766.19;;;20.57;59.64
13709;BME280;54933;51.908;7.730;2023-03-03T05:26:33;101777.00;;;20.57;59.72
13709;BME280;54933;51.908;7.730;2023-03-03T05:28:58;101777.81;;;20.58;59.46
13709;BME280;54933;51.908;7.730;2023-03-03T05:31:23;101779.69;;;20.57;59.59
13709;BME280;54933;51.908;7.730;2023-03-03T05:33:51;101786.94;;;20.57;59.55
13709;BME280;54933;51.908;7.730;2023-03-03T05:36:16;101793.19;;;20.57;59.50
13709;BME280;54933;51.908;7.730;2023-03-03T05:38:41;101790.50;;;20.57;59.45
13709;BME280;54933;51.908;7.730;2023-03-03T05:41:07;101793.19;;;20.57;59.76
13709;BME280;54933;51.908;7.730;2023-03-03T05:43:32;101781.56;;;20.57;59.66
13709;BME280;54933;51.908;7.730;2023-03-03T05:45:57;101786.09;;;20.56;59.81
13709;BME280;54933;51.908;7.730;2023-03-03T05:48:23;101791.50;;;20.56;59.70
13709;BME280;54933;51.908;7.730;2023-03-03T05:50:48;101794.22;;;20.56;59.78
13709;BME280;54933;51.908;7.730;2023-03-03T05:53:13;101792.34;;;20.57;60.10
13709;BME280;54933;51.908;7.730;2023-03-03T05:55:39;101796.91;;;20.56;59.46
13709;BME280;54933;51.908;7.730;2023-03-03T05:58:04;101792.53;;;20.55;60.00
13709;BME280;54933;51.908;7.730;2023-03-03T06:00:30;101797.09;;;20.55;59.49
13709;BME280;54933;51.908;7.730;2023-03-03T06:02:55;101797.09;;;20.55;59.46
13709;BME280;54933;51.908;7.730;2023-03-03T06:05:20;101798.94;;;20.54;59.51
13709;BME280;54933;51.908;7.730;2023-03-03T06:07:45;101800.66;;;20.55;59.60
13709;BME280;54933;51.908;7.730;2023-03-03T06:10:11;101803.34;;;20.55;59.88
13709;BME280;54933;51.908;7.730;2023-03-03T06:12:36;101798.94;;;20.54;59.97
13709;BME280;54933;51.908;7.730;2023-03-03T06:15:03;101792.09;;;20.08;57.95
13709;BME280;54933;51.908;7.730;2023-03-03T06:17:29;101800.59;;;20.19;57.21
13709;BME280;54933;51.908;7.730;2023-03-03T06:19:54;101800.69;;;20.26;56.83
13709;BME280;54933;51.908;7.730;2023-03-03T06:22:19;101810.91;;;20.31;57.09
13709;BME280;54933;51.908;7.730;2023-03-03T06:24:45;101811.38;;;20.34;57.39
13709;BME280;54933;51.908;7.730;2023-03-03T06:27:10;101818.44;;;20.35;57.75
13709;BME280;54933;51.908;7.730;2023-03-03T06:29:35;101812.84;;;20.37;57.84
13709;BME280;54933;51.908;7.730;2023-03-03T06:32:00;101817.25;;;20.38;58.14
13709;BME280;54933;51.908;7.730;2023-03-03T06:34:26;101810.63;;;20.40;58.33
13709;BME280;54933;51.908;7.730;2023-03-03T06:36:51;101817.06;;;20.39;58.48
13709;BME280;54933;51.908;7.730;2023-03-03T06:39:16;101821.41;;;20.40;58.41
13709;BME280;54933;51.908;7.730;2023-03-03T06:41:42;101820.38;;;20.41;58.64
13709;BME280;54933;51.908;7.730;2023-03-03T06:44:07;101830.34;;;20.41;58.78
13709;BME280;54933;51.908;7.730;2023-03-03T06:46:32;101818.44;;;20.20;57.11
13709;BME280;54933;51.908;7.730;2023-03-03T06:48:58;101828.00;;;20.23;56.47
13709;BME280;54933;51.908;7.730;2023-03-03T06:51:34;101833.69;;;20.28;56.67
13709;BME280;54933;51.908;7.730;2023-03-03T06:54:10;101841.44;;;20.31;57.05
13709;BME280;54933;51.908;7.730;2023-03-03T06:56:36;101839.38;;;20.33;57.12
13709;BME280;54933;51.908;7.730;2023-03-03T06:59:09;101842.06;;;20.33;57.50
13709;BME280;54933;51.908;7.730;2023-03-03T07:01:36;101837.34;;;20.35;57.56
13709;BME280;54933;51.908;7.730;2023-03-03T07:04:21;101845.44;;;20.35;57.68
13709;BME280;54933;51.908;7.730;2023-03-03T07:06:49;101846.09;;;20.37;57.68
13709;BME280;54933;51.908;7.730;2023-03-03T07:09:24;101854.84;;;20.39;57.92
13709;BME280;54933;51.908;7.730;2023-03-03T07:11:56;101860.25;;;20.39;57.91
13709;BME280;54933;51.908;7.730;2023-03-03T07:14:24;101858.16;;;20.41;58.03
13709;BME280;54933;51.908;7.730;2023-03-03T07:16:55;101861.72;;;20.42;58.21
13709;BME280;54933;51.908;7.730;2023-03-03T07:19:34;101857.16;;;20.42;58.19
13709;BME280;54933;51.908;7.730;2023-03-03T07:22:17;101864.41;;;20.42;58.21
13709;BME280;54933;51.908;7.730;2023-03-03T07:24:45;101870.66;;;20.42;58.37
13709;BME280;54933;51.908;7.730;2023-03-03T07:27:16;101865.25;;;20.42;58.49
13709;BME280;54933;51.908;7.730;2023-03-03T07:29:48;101862.38;;;20.44;58.35
13709;BME280;54933;51.908;7.730;2023-03-03T07:32:39;101872.31;;;20.43;58.45
13709;BME280;54933;51.908;7.730;2023-03-03T07:37:54;101882.13;;;20.44;58.66
13709;BME280;54933;51.908;7.730;2023-03-03T07:40:35;101883.13;;;20.43;58.67
13709;BME280;54933;51.908;7.730;2023-03-03T07:43:42;101886.47;;;20.45;58.70
13709;BME280;54933;51.908;7.730;2023-03-03T07:46:28;101883.13;;;20.43;58.71
13709;BME280;54933;51.908;7.730;2023-03-03T07:48:57;101885.63;;;20.45;58.77
13709;BME280;54933;51.908;7.730;2023-03-03T07:51:43;101893.56;;;20.46;58.69
13709;BME280;54933;51.908;7.730;2023-03-03T07:56:41;101905.38;;;20.45;59.02
13709;BME280;54933;51.908;7.730;2023-03-03T07:59:23;101908.94;;;20.46;58.89
13709;BME280;54933;51.908;7.730;2023-03-03T08:01:58;101901.84;;;20.45;58.93
13709;BME280;54933;51.908;7.730;2023-03-03T08:04:35;101907.06;;;20.46;59.06
13709;BME280;54933;51.908;7.730;2023-03-03T08:07:02;101910.59;;;20.47;58.95
13709;BME280;54933;51.908;7.730;2023-03-03T08:09:47;101921.41;;;20.47;58.75
13709;BME280;54933;51.908;7.730;2023-03-03T08:14:57;101919.53;;;20.47;59.12
13709;BME280;54933;51.908;7.730;2023-03-03T08:17:35;101912.25;;;20.48;59.08
13709;BME280;54933;51.908;7.730;2023-03-03T08:23:00;101923.91;;;20.48;59.00
13709;BME280;54933;51.908;7.730;2023-03-03T08:25:25;101930.16;;;20.49;59.04
13709;BME280;54933;51.908;7.730;2023-03-03T08:27:50;101929.13;;;20.50;58.97
13709;BME280;54933;51.908;7.730;2023-03-03T08:30:16;101924.75;;;20.49;59.05
13709;BME280;54933;51.908;7.730;2023-03-03T08:32:41;101921.88;;;20.50;59.20
13709;BME280;54933;51.908;7.730;2023-03-03T08:35:07;101921.88;;;20.50;58.97
13709;BME280;54933;51.908;7.730;2023-03-03T08:37:32;101913.78;;;20.50;59.18
13709;BME280;54933;51.908;7.730;2023-03-03T08:39:57;101916.47;;;20.50;59.28
13709;BME280;54933;51.908;7.730;2023-03-03T08:42:22;101919.84;;;20.52;58.97
13709;BME280;54933;51.908;7.730;2023-03-03T08:44:48;101918.97;;;20.52;59.13
13709;BME280;54933;51.908;7.730;2023-03-03T08:47:13;101919.63;;;20.54;59.27
13709;BME280;54933;51.908;7.730;2023-03-03T08:49:38;101918.78;;;20.53;59.21
13709;BME280;54933;51.908;7.730;2023-03-03T08:52:04;101918.78;;;20.53;59.11
13709;BME280;54933;51.908;7.730;2023-03-03T08:54:29;101914.25;;;20.54;59.22
13709;BME280;54933;51.908;7.730;2023-03-03T08:56:54;101915.91;;;20.55;58.99
13709;BME280;54933;51.908;7.730;2023-03-03T08:59:20;101921.31;;;20.55;59.13
13709;BME280;54933;51.908;7.730;2023-03-03T09:01:46;101924.84;;;20.55;59.28
13709;BME280;54933;51.908;7.730;2023-03-03T09:04:11;101923.16;;;20.54;59.13
13709;BME280;54933;51.908;7.730;2023-03-03T09:06:37;101926.53;;;20.56;59.14
13709;BME280;54933;51.908;7.730;2023-03-03T09:09:03;101926.53;;;20.56;59.10
13709;BME280;54933;51.908;7.730;2023-03-03T09:11:28;101925.69;;;20.56;59.22
13709;BME280;54933;51.908;7.730;2023-03-03T09:14:13;101931.91;;;20.56;59.14
13709;BME280;54933;51.908;7.730;2023-03-03T09:16:59;101933.63;;;20.57;59.16
13709;BME280;54933;51.908;7.730;2023-03-03T09:19:29;101930.91;;;20.57;59.19
13709;BME280;54933;51.908;7.730;2023-03-03T09:22:01;101932.56;;;20.58;59.05
13709;BME280;54933;51.908;7.730;2023-03-03T09:24:29;101931.53;;;20.59;59.63
13709;BME280;54933;51.908;7.730;2023-03-03T09:26:56;101932.56;;;20.58;59.13
13709;BME280;54933;51.908;7.730;2023-03-03T09:29:30;101933.25;;;20.60;59.08
13709;BME280;54933;51.908;7.730;2023-03-03T09:32:21;101933.25;;;20.60;59.19
13709;BME280;54933;51.908;7.730;2023-03-03T09:34:46;101933.25;;;20.60;59.02
13709;BME280;54933;51.908;7.730;2023-03-03T09:37:21;101940.31;;;20.61;59.08
13709;BME280;54933;51.908;7.730;2023-03-03T09:39:49;101939.31;;;20.62;59.14
13709;BME280;54933;51.908;7.730;2023-03-03T09:42:39;101935.75;;;20.62;59.30
13709;BME280;54933;51.908;7.730;2023-03-03T09:48:27;101938.25;;;20.63;58.66
13709;BME280;54933;51.908;7.730;2023-03-03T09:56:38;101947.22;;;20.64;58.96
13709;BME280;54933;51.908;7.730;2023-03-03T09:59:14;101950.72;;;20.64;58.90
13709;BME280;54933;51.908;7.730;2023-03-03T10:02:12;101960.72;;;20.64;58.93
13709;BME280;54933;51.908;7.730;2023-03-03T10:07:38;101953.25;;;20.66;59.08
13709;BME280;54933;51.908;7.730;2023-03-03T10:18:29;101969.25;;;20.67;59.02
13709;BME280;54933;51.908;7.730;2023-03-03T10:23:53;101964.53;;;20.69;58.80
13709;BME280;54933;51.908;7.730;2023-03-03T10:42:22;101980.00;;;20.75;58.96
13709;BME280;54933;51.908;7.730;2023-03-03T10:45:00;101958.41;;;20.75;58.96
13709;BME280;54933;51.908;7.730;2023-03-03T10:52:48;101968.81;;;20.78;59.02
13709;BME280;54933;51.908;7.730;2023-03-03T10:58:25;101972.34;;;20.79;58.93
13709;BME280;54933;51.908;7.730;2023-03-03T11:01:13;101973.38;;;20.78;58.82
13709;BME280;54933;51.908;7.730;2023-03-03T11:06:39;101967.78;;;20.79;58.75
13709;BME280;54933;51.908;7.730;2023-03-03T11:14:35;101981.00;;;20.74;58.32
13709;BME280;54933;51.908;7.730;2023-03-03T11:17:17;101965.47;;;20.76;57.88
13709;BME280;54933;51.908;7.730;2023-03-03T11:20:00;101959.03;;;20.77;58.08
13709;BME280;54933;51.908;7.730;2023-03-03T11:22:55;101964.03;;;20.80;58.28
13709;BME280;54933;51.908;7.730;2023-03-03T11:25:45;101961.34;;;20.80;58.44
13709;BME280;54933;51.908;7.730;2023-03-03T11:28:43;101957.63;;;20.81;58.66
13709;BME280;54933;51.908;7.730;2023-03-03T11:31:29;101957.63;;;20.81;58.86
13709;BME280;54933;51.908;7.730;2023-03-03T11:34:08;101955.59;;;20.83;59.35
13709;BME280;54933;51.908;7.730;2023-03-03T11:36:44;101958.31;;;20.83;59.12
13709;BME280;54933;51.908;7.730;2023-03-03T11:39:15;101953.53;;;20.85;59.56
13709;BME280;54933;51.908;7.730;2023-03-03T11:41:58;101943.56;;;20.86;59.74
13709;BME280;54933;51.908;7.730;2023-03-03T11:44:37;101950.81;;;20.85;59.87
13709;BME280;54933;51.908;7.730;2023-03-03T11:47:21;101949.81;;;20.86;60.07
13709;BME280;54933;51.908;7.730;2023-03-03T11:49:55;101942.53;;;20.87;60.12
13709;BME280;54933;51.908;7.730;2023-03-03T11:52:51;101936.31;;;20.86;60.27
13709;BME280;54933;51.908;7.730;2023-03-03T11:55:34;101929.03;;;20.87;60.11
13709;BME280;54933;51.908;7.730;2023-03-03T11:58:16;101936.13;;;20.88;60.45
13709;BME280;54933;51.908;7.730;2023-03-03T12:03:30;101927.16;;;20.87;60.13
13709;BME280;54933;51.908;7.730;2023-03-03T12:09:05;101922.59;;;20.88;60.30
13709;BME280;54933;51.908;7.730;2023-03-03T12:11:53;101923.47;;;20.88;60.33
13709;BME280;54933;51.908;7.730;2023-03-03T12:14:48;101920.75;;;20.88;60.42
13709;BME280;54933;51.908;7.730;2023-03-03T12:17:30;101915.34;;;20.88;60.22
13709;BME280;54933;51.908;7.730;2023-03-03T12:25:50;101909.94;;;20.88;60.40
13709;BME280;54933;51.908;7.730;2023-03-03T12:28:31;101905.38;;;20.89;60.43
13709;BME280;54933;51.908;7.730;2023-03-03T12:31:12;101908.91;;;20.89;60.28
13709;BME280;54933;51.908;7.730;2023-03-03T12:33:51;101903.50;;;20.89;60.17
13709;BME280;54933;51.908;7.730;2023-03-03T12:42:02;101887.94;;;20.91;60.27
13709;BME280;54933;51.908;7.730;2023-03-03T12:44:54;101887.94;;;20.91;60.06
13709;BME280;54933;51.908;7.730;2023-03-03T12:47:27;101891.66;;;20.90;60.33
13709;BME280;54933;51.908;7.730;2023-03-03T12:56:00;101887.94;;;20.91;60.19
13709;BME280;54933;51.908;7.730;2023-03-03T13:06:26;101893.34;;;20.91;60.62
13709;BME280;54933;51.908;7.730;2023-03-03T13:09:16;101886.25;;;20.90;59.93
13709;BME280;54933;51.908;7.730;2023-03-03T13:12:06;101890.66;;;20.91;60.08
13709;BME280;54933;51.908;7.730;2023-03-03T13:14:42;101887.94;;;20.91;60.01
13709;BME280;54933;51.908;7.730;2023-03-03T13:19:59;101880.84;;;20.90;59.87
13709;BME280;54933;51.908;7.730;2023-03-03T13:22:38;101876.09;;;20.92;59.95
13709;BME280;54933;51.908;7.730;2023-03-03T13:25:36;101881.50;;;20.92;60.10
13709;BME280;54933;51.908;7.730;2023-03-03T13:33:30;101868.84;;;20.93;60.02
13709;BME280;54933;51.908;7.730;2023-03-03T13:36:04;101869.66;;;20.93;59.80
13709;BME280;54933;51.908;7.730;2023-03-03T13:38:34;101866.97;;;20.93;59.80
13709;BME280;54933;51.908;7.730;2023-03-03T13:41:23;101860.56;;;20.94;59.66
13709;BME280;54933;51.908;7.730;2023-03-03T13:43:56;101859.69;;;20.94;59.86
13709;BME280;54933;51.908;7.730;2023-03-03T13:49:15;101857.00;;;20.94;59.83
13709;BME280;54933;51.908;7.730;2023-03-03T13:54:38;101854.03;;;20.89;58.90
13709;BME280;54933;51.908;7.730;2023-03-03T13:57:30;101851.13;;;20.90;58.87
13709;BME280;54933;51.908;7.730;2023-03-03T14:00:06;101845.72;;;20.90;59.05
13709;BME280;54933;51.908;7.730;2023-03-03T14:02:56;101843.03;;;20.90;59.23
13709;BME280;54933;51.908;7.730;2023-03-03T14:05:35;101852.81;;;20.91;59.15
13709;BME280;54933;51.908;7.730;2023-03-03T14:10:36;101843.69;;;20.92;59.53
13709;BME280;54933;51.908;7.730;2023-03-03T14:13:16;101839.31;;;20.91;59.43
13709;BME280;54933;51.908;7.730;2023-03-03T14:15:55;101831.88;;;20.79;58.49
13709;BME280;54933;51.908;7.730;2023-03-03T14:21:12;101831.94;;;20.85;58.34
13709;BME280;54933;51.908;7.730;2023-03-03T14:24:06;101828.25;;;20.86;58.72
13709;BME280;54933;51.908;7.730;2023-03-03T14:26:49;101829.91;;;20.87;58.87
13709;BME280;54933;51.908;7.730;2023-03-03T14:31:50;101820.94;;;20.87;58.97
13709;BME280;54933;51.908;7.730;2023-03-03T14:36:48;101826.34;;;20.87;58.75
13709;BME280;54933;51.908;7.730;2023-03-03T14:39:33;101818.09;;;20.88;58.89
13709;BME280;54933;51.908;7.730;2023-03-03T14:42:00;101808.56;;;20.57;58.68
13709;BME280;54933;51.908;7.730;2023-03-03T14:44:29;101808.75;;;20.55;56.55
13709;BME280;54933;51.908;7.730;2023-03-03T14:47:15;101816.34;;;20.66;56.73
13709;BME280;54933;51.908;7.730;2023-03-03T14:49:41;101813.91;;;20.71;56.83
13709;BME280;54933;51.908;7.730;2023-03-03T14:54:41;101807.75;;;20.77;57.45
13709;BME280;54933;51.908;7.730;2023-03-03T14:57:36;101812.16;;;20.78;57.64
13709;BME280;54933;51.908;7.730;2023-03-03T15:00:30;101815.47;;;20.80;58.11
13709;BME280;54933;51.908;7.730;2023-03-03T15:03:20;101812.63;;;20.82;58.08
13709;BME280;54933;51.908;7.730;2023-03-03T15:05:51;101813.44;;;20.82;58.35
13709;BME280;54933;51.908;7.730;2023-03-03T15:08:29;101806.34;;;20.81;58.49
13709;BME280;54933;51.908;7.730;2023-03-03T15:11:17;101808.03;;;20.82;58.55
13709;BME280;54933;51.908;7.730;2023-03-03T15:13:43;101802.63;;;20.82;58.65
13709;BME280;54933;51.908;7.730;2023-03-03T15:16:17;101802.63;;;20.82;58.62
13709;BME280;54933;51.908;7.730;2023-03-03T15:19:22;101807.00;;;20.83;58.83
13709;BME280;54933;51.908;7.730;2023-03-03T15:24:39;101792.47;;;20.84;58.72
13709;BME280;54933;51.908;7.730;2023-03-03T15:27:12;101798.72;;;20.85;58.93
13709;BME280;54933;51.908;7.730;2023-03-03T15:29:54;101789.56;;;20.86;58.94
13709;BME280;54933;51.908;7.730;2023-03-03T15:32:31;101785.00;;;20.86;59.11